createdAt,value
2022-12-27T00:00:36.210Z,70.87
2022-12-27T00:03:02.861Z,70.93
2022-12-27T00:05:29.332Z,70.86
2022-12-27T00:07:56.315Z,70.14
2022-12-27T00:10:22.917Z,69.68
2022-12-27T00:12:49.406Z,69.62
2022-12-27T00:15:15.887Z,69.82
2022-12-27T00:17:42.456Z,70.07
2022-12-27T00:20:11.578Z,69.69
2022-12-27T00:22:39.619Z,69.90
2022-12-27T00:25:06.726Z,69.24
2022-12-27T00:27:33.174Z,69.52
2022-12-27T00:29:59.602Z,69.50
2022-12-27T00:32:26.267Z,69.99
2022-12-27T00:34:52.763Z,70.24
2022-12-27T00:37:21.742Z,70.23
2022-12-27T00:39:48.373Z,70.29
2022-12-27T00:42:14.880Z,70.34
2022-12-27T00:44:43.118Z,70.34
2022-12-27T00:47:10.593Z,70.27
2022-12-27T00:49:37.230Z,70.35
2022-12-27T00:52:03.941Z,70.28
2022-12-27T00:54:30.452Z,70.58
2022-12-27T00:56:56.943Z,70.02
2022-12-27T00:59:23.386Z,69.75
2022-12-27T01:01:50.016Z,69.36
2022-12-27T01:04:17.164Z,69.77
2022-12-27T01:06:44.185Z,69.96
2022-12-27T01:09:10.656Z,69.18
2022-12-27T01:11:37.191Z,69.06
2022-12-27T01:14:05.314Z,69.32
2022-12-27T01:16:33.176Z,69.53
2022-12-27T01:19:00.509Z,69.17
2022-12-27T01:21:30.456Z,68.90
2022-12-27T01:23:57.468Z,69.09
2022-12-27T01:26:24.611Z,69.94
2022-12-27T01:28:53.489Z,69.95
2022-12-27T01:31:24.858Z,70.34
2022-12-27T01:33:59.140Z,70.64
2022-12-27T01:36:28.086Z,70.93
2022-12-27T01:38:55.044Z,70.76
2022-12-27T01:41:45.483Z,70.33
2022-12-27T01:44:40.045Z,70.25
2022-12-27T01:47:17.379Z,69.93
2022-12-27T01:50:00.870Z,69.80
2022-12-27T01:52:46.554Z,70.23
2022-12-27T01:55:25.180Z,69.48
2022-12-27T01:57:58.119Z,69.47
2022-12-27T02:00:24.880Z,69.02
2022-12-27T02:02:52.886Z,69.33
2022-12-27T02:05:23.959Z,69.74
2022-12-27T02:08:21.630Z,69.63
2022-12-27T02:10:50.928Z,69.56
2022-12-27T02:13:19.157Z,69.39
2022-12-27T02:15:45.614Z,69.47
2022-12-27T02:18:12.309Z,70.03
2022-12-27T02:21:13.515Z,69.94
2022-12-27T02:24:43.420Z,69.86
2022-12-27T02:27:57.140Z,69.91
2022-12-27T02:30:24.227Z,70.32
2022-12-27T02:33:19.308Z,70.56
2022-12-27T02:35:57.978Z,70.67
2022-12-27T02:38:36.349Z,70.92
2022-12-27T02:41:27.064Z,70.57
2022-12-27T02:44:14.397Z,70.63
2022-12-27T02:47:00.234Z,71.02
2022-12-27T02:49:55.111Z,70.34
2022-12-27T02:52:55.281Z,71.11
2022-12-27T02:56:24.638Z,70.74
2022-12-27T02:59:23.079Z,71.27
2022-12-27T03:02:33.863Z,71.32
2022-12-27T03:05:19.868Z,71.22
2022-12-27T03:08:01.797Z,71.01
2022-12-27T03:11:03.487Z,70.76
2022-12-27T03:14:20.027Z,71.45
2022-12-27T03:16:56.121Z,70.69
2022-12-27T03:20:22.966Z,71.37
2022-12-27T03:23:12.257Z,71.12
2022-12-27T03:25:43.259Z,70.36
2022-12-27T03:28:39.920Z,70.54
2022-12-27T03:32:00.517Z,70.59
2022-12-27T03:34:39.930Z,70.81
2022-12-27T03:37:32.236Z,70.84
2022-12-27T03:40:15.282Z,70.94
2022-12-27T03:43:10.175Z,70.56
2022-12-27T03:46:16.745Z,70.55
2022-12-27T03:49:08.227Z,70.59
2022-12-27T03:52:11.699Z,71.04
2022-12-27T03:54:41.881Z,70.92
2022-12-27T03:57:17.352Z,70.40
2022-12-27T03:59:44.756Z,70.78
2022-12-27T04:02:11.853Z,70.81
2022-12-27T04:04:38.735Z,70.12
2022-12-27T04:07:06.351Z,70.36
2022-12-27T04:09:52.071Z,70.88
2022-12-27T04:12:37.147Z,70.41
2022-12-27T04:15:22.994Z,70.42
2022-12-27T04:18:08.332Z,70.29
2022-12-27T04:20:53.478Z,70.25
2022-12-27T04:23:38.839Z,70.68
2022-12-27T04:26:24.178Z,70.54
2022-12-27T04:29:09.616Z,70.75
2022-12-27T04:31:54.969Z,70.90
2022-12-27T04:34:40.341Z,71.13
2022-12-27T04:37:08.561Z,71.35
2022-12-27T04:39:35.709Z,71.22
2022-12-27T04:42:20.581Z,71.35
2022-12-27T04:45:13.224Z,71.69
2022-12-27T04:48:00.532Z,71.53
2022-12-27T04:50:49.801Z,71.86
2022-12-27T04:53:39.296Z,71.61
2022-12-27T04:56:07.115Z,71.85
2022-12-27T04:58:34.525Z,71.51
2022-12-27T05:01:23.437Z,71.28
2022-12-27T05:03:53.397Z,70.99
2022-12-27T05:06:20.492Z,71.02
2022-12-27T05:09:06.846Z,70.93
2022-12-27T05:11:52.076Z,71.08
2022-12-27T05:14:18.576Z,71.27
2022-12-27T05:16:45.457Z,70.93
2022-12-27T05:19:14.500Z,70.77
2022-12-27T05:22:03.925Z,70.08
2022-12-27T05:24:50.804Z,70.27
2022-12-27T05:27:18.618Z,70.54
2022-12-27T05:29:46.593Z,70.16
2022-12-27T05:32:13.921Z,69.93
2022-12-27T05:34:41.069Z,70.26
2022-12-27T05:37:08.333Z,70.52
2022-12-27T05:39:34.807Z,70.31
2022-12-27T05:42:01.340Z,70.30
2022-12-27T05:44:27.830Z,70.18
2022-12-27T05:46:55.631Z,70.54
2022-12-27T05:49:22.369Z,70.34
2022-12-27T05:51:48.823Z,70.28
2022-12-27T05:54:15.454Z,70.28
2022-12-27T05:56:42.017Z,70.54
2022-12-27T05:59:08.670Z,70.74
2022-12-27T06:01:35.342Z,70.64
2022-12-27T06:04:01.973Z,70.57
2022-12-27T06:06:28.928Z,71.15
2022-12-27T06:08:55.441Z,70.80
2022-12-27T06:11:22.058Z,70.94
2022-12-27T06:13:54.126Z,70.74
2022-12-27T06:16:22.636Z,70.65
2022-12-27T06:18:49.946Z,70.55
2022-12-27T06:21:20.957Z,70.03
2022-12-27T06:23:49.485Z,70.32
2022-12-27T06:26:23.575Z,70.45
2022-12-27T06:28:51.381Z,70.71
2022-12-27T06:31:20.148Z,70.85
2022-12-27T06:33:48.731Z,70.54
2022-12-27T06:36:20.059Z,70.96
2022-12-27T06:38:47.480Z,71.15
2022-12-27T06:41:17.395Z,70.99
2022-12-27T06:43:45.786Z,71.14
2022-12-27T06:46:18.163Z,70.97
2022-12-27T06:48:46.831Z,71.21
2022-12-27T06:51:15.303Z,70.91
2022-12-27T06:53:41.857Z,71.12
2022-12-27T06:56:18.583Z,71.13
2022-12-27T06:58:47.724Z,70.86
2022-12-27T07:01:24.445Z,70.80
2022-12-27T07:03:57.810Z,70.83
2022-12-27T07:06:27.604Z,70.72
2022-12-27T07:08:55.304Z,70.54
2022-12-27T07:11:23.781Z,70.12
2022-12-27T07:13:54.957Z,70.32
2022-12-27T07:16:25.040Z,70.03
2022-12-27T07:18:52.439Z,69.96
2022-12-27T07:21:24.501Z,70.04
2022-12-27T07:23:51.527Z,70.22
2022-12-27T07:26:26.769Z,70.09
2022-12-27T07:28:56.165Z,70.15
2022-12-27T07:31:26.539Z,70.19
2022-12-27T07:33:53.420Z,70.39
2022-12-27T07:36:29.298Z,70.70
2022-12-27T07:38:55.999Z,70.57
2022-12-27T07:41:23.048Z,70.49
2022-12-27T07:43:49.635Z,70.37
2022-12-27T07:46:25.480Z,70.03
2022-12-27T07:48:57.418Z,69.98
2022-12-27T07:51:26.781Z,70.05
2022-12-27T07:53:54.499Z,70.09
2022-12-27T07:56:26.523Z,69.95
2022-12-27T07:58:57.552Z,70.06
2022-12-27T08:01:28.068Z,70.25
2022-12-27T08:03:55.690Z,70.41
2022-12-27T08:06:29.737Z,70.38
2022-12-27T08:08:59.586Z,70.07
2022-12-27T08:11:29.987Z,69.96
2022-12-27T08:13:56.656Z,70.10
2022-12-27T08:16:26.397Z,69.95
2022-12-27T08:18:53.213Z,70.41
2022-12-27T08:21:19.778Z,70.29
2022-12-27T08:23:46.371Z,70.25
2022-12-27T08:26:12.848Z,70.15
2022-12-27T08:28:39.635Z,70.18
2022-12-27T08:31:09.216Z,69.85
2022-12-27T08:33:37.328Z,70.06
2022-12-27T08:36:36.832Z,69.85
2022-12-27T08:38:57.251Z,69.52
2022-12-27T08:41:24.066Z,68.81
2022-12-27T08:43:50.688Z,68.99
2022-12-27T08:46:19.254Z,69.55
2022-12-27T08:48:50.373Z,69.80
2022-12-27T08:51:28.408Z,69.99
2022-12-27T08:53:59.592Z,70.07
2022-12-27T08:56:26.338Z,69.56
2022-12-27T08:58:52.975Z,69.09
2022-12-27T09:01:19.905Z,69.29
2022-12-27T09:03:46.617Z,69.07
2022-12-27T09:06:18.721Z,68.71
2022-12-27T09:08:48.284Z,68.93
2022-12-27T09:11:27.992Z,68.99
2022-12-27T09:13:55.212Z,69.60
2022-12-27T09:16:27.482Z,69.05
2022-12-27T09:18:56.268Z,68.70
2022-12-27T09:21:26.196Z,68.82
2022-12-27T09:23:52.873Z,68.64
2022-12-27T09:26:23.407Z,68.68
2022-12-27T09:28:51.290Z,68.43
2022-12-27T09:31:19.937Z,68.56
2022-12-27T09:33:46.904Z,68.90
2022-12-27T09:36:20.536Z,67.99
2022-12-27T09:38:48.575Z,68.18
2022-12-27T09:44:58.411Z,68.05
2022-12-27T09:47:56.833Z,67.67
2022-12-27T09:50:30.772Z,67.87
2022-12-27T09:53:03.237Z,67.95
2022-12-27T09:55:41.922Z,68.24
2022-12-27T09:58:49.373Z,68.14
2022-12-27T10:01:42.407Z,67.58
2022-12-27T10:04:13.990Z,67.81
2022-12-27T10:06:49.305Z,67.65
2022-12-27T10:09:56.984Z,68.17
2022-12-27T10:13:01.169Z,67.47
2022-12-27T10:15:33.362Z,67.08
2022-12-27T10:18:05.814Z,67.82
2022-12-27T10:21:17.465Z,67.03
2022-12-27T10:23:59.487Z,66.55
2022-12-27T10:26:27.002Z,67.72
2022-12-27T10:29:11.585Z,67.36
2022-12-27T10:31:43.041Z,67.45
2022-12-27T10:34:16.570Z,67.00
2022-12-27T10:36:45.297Z,67.48
2022-12-27T10:39:28.537Z,67.39
2022-12-27T10:42:16.853Z,67.53
2022-12-27T10:44:43.510Z,67.33
2022-12-27T10:47:11.195Z,67.48
2022-12-27T10:49:42.337Z,66.96
2022-12-27T10:52:24.191Z,66.95
2022-12-27T10:54:56.143Z,66.64
2022-12-27T10:57:29.166Z,66.94
2022-12-27T11:00:16.322Z,66.48
2022-12-27T11:02:55.973Z,66.19
2022-12-27T11:05:32.386Z,67.51
2022-12-27T11:08:01.228Z,67.51
2022-12-27T11:10:33.216Z,67.41
2022-12-27T11:13:07.313Z,67.03
2022-12-27T11:15:38.517Z,67.22
2022-12-27T11:18:17.083Z,66.52
2022-12-27T11:20:52.908Z,66.80
2022-12-27T11:23:23.979Z,67.11
2022-12-27T11:26:28.316Z,66.51
2022-12-27T11:29:00.886Z,67.35
2022-12-27T11:31:34.304Z,67.00
2022-12-27T11:34:08.632Z,67.03
2022-12-27T11:36:43.925Z,66.94
2022-12-27T11:39:37.403Z,66.04
2022-12-27T11:42:17.797Z,66.52
2022-12-27T11:45:14.028Z,66.68
2022-12-27T11:48:29.258Z,66.07
2022-12-27T11:51:16.375Z,65.65
2022-12-27T11:54:05.851Z,65.57
2022-12-27T11:56:43.557Z,66.42
2022-12-27T11:59:52.886Z,66.30
2022-12-27T12:03:09.319Z,66.45
2022-12-27T12:06:02.141Z,66.07
2022-12-27T12:09:17.959Z,66.48
2022-12-27T12:12:37.558Z,66.39
2022-12-27T12:15:48.136Z,66.26
2022-12-27T12:18:45.530Z,66.52
2022-12-27T12:21:44.304Z,65.99
2022-12-27T12:24:47.606Z,66.07
2022-12-27T12:27:38.406Z,65.99
2022-12-27T12:30:35.867Z,66.35
2022-12-27T12:33:36.401Z,66.29
2022-12-27T12:37:04.418Z,66.44
2022-12-27T12:40:27.641Z,67.10
2022-12-27T12:43:23.332Z,67.18
2022-12-27T12:46:38.819Z,66.43
2022-12-27T12:49:20.078Z,66.67
2022-12-27T12:52:18.769Z,66.25
2022-12-27T12:55:39.213Z,66.11
2022-12-27T12:58:28.705Z,66.46
2022-12-27T13:01:14.088Z,66.58
2022-12-27T13:04:07.088Z,66.22
2022-12-27T13:07:14.804Z,66.07
2022-12-27T13:10:28.499Z,66.70
2022-12-27T13:13:12.252Z,67.26
2022-12-27T13:16:11.698Z,66.94
2022-12-27T13:19:13.135Z,67.03
2022-12-27T13:22:17.047Z,66.80
2022-12-27T13:25:03.732Z,67.16
2022-12-27T13:27:58.259Z,66.93
2022-12-27T13:30:39.219Z,67.87
2022-12-27T13:33:15.150Z,67.58
2022-12-27T13:35:47.331Z,67.84
2022-12-27T13:38:22.643Z,67.17
2022-12-27T13:41:30.445Z,67.53
2022-12-27T13:44:22.389Z,66.67
2022-12-27T13:47:36.761Z,66.05
2022-12-27T13:50:50.882Z,66.52
2022-12-27T13:53:51.641Z,66.40
2022-12-27T13:56:53.914Z,66.15
2022-12-27T13:59:55.249Z,65.91
2022-12-27T14:02:37.432Z,65.78
2022-12-27T14:05:41.292Z,65.18
2022-12-27T14:08:10.562Z,66.01
2022-12-27T14:10:44.207Z,65.88
2022-12-27T14:13:12.810Z,65.37
2022-12-27T14:16:33.431Z,64.90
2022-12-27T14:19:30.035Z,65.45
2022-12-27T14:22:35.797Z,65.98
2022-12-27T14:25:34.424Z,65.49
2022-12-27T14:28:59.901Z,65.16
2022-12-27T14:32:27.371Z,65.38
2022-12-27T14:35:36.910Z,66.05
2022-12-27T14:38:33.885Z,65.39
2022-12-27T14:41:47.209Z,65.85
2022-12-27T14:44:52.355Z,66.34
2022-12-27T14:48:17.935Z,65.04
2022-12-27T14:51:59.809Z,65.93
2022-12-27T14:55:00.567Z,66.11
2022-12-27T14:58:04.886Z,65.91
2022-12-27T15:01:00.010Z,65.17
2022-12-27T15:03:54.439Z,65.82
2022-12-27T15:06:58.517Z,65.88
2022-12-27T15:09:43.262Z,65.59
2022-12-27T15:12:57.346Z,66.02
2022-12-27T15:15:43.898Z,66.51
2022-12-27T15:18:38.099Z,65.97
2022-12-27T15:21:37.068Z,66.71
2022-12-27T15:24:50.440Z,66.25
2022-12-27T15:27:31.112Z,66.86
2022-12-27T15:30:05.463Z,66.76
2022-12-27T15:32:53.210Z,66.75
2022-12-27T15:35:35.678Z,66.94
2022-12-27T15:38:26.710Z,66.72
2022-12-27T15:41:08.571Z,66.60
2022-12-27T15:43:52.331Z,66.57
2022-12-27T15:46:49.928Z,66.93
2022-12-27T15:49:41.155Z,66.96
2022-12-27T15:52:22.611Z,67.28
2022-12-27T15:55:34.276Z,66.58
2022-12-27T15:58:18.275Z,67.15
2022-12-27T16:01:06.339Z,67.33
2022-12-27T16:03:38.193Z,66.63
2022-12-27T16:06:07.687Z,66.97
2022-12-27T16:08:40.236Z,66.70
2022-12-27T16:11:13.758Z,67.00
2022-12-27T16:13:45.426Z,66.76
2022-12-27T16:16:38.717Z,67.08
2022-12-27T16:19:55.432Z,67.30
2022-12-27T16:22:34.095Z,67.80
2022-12-27T16:25:28.650Z,67.47
2022-12-27T16:28:13.418Z,67.58
2022-12-27T16:30:47.628Z,67.48
2022-12-27T16:33:26.044Z,67.31
2022-12-27T16:36:13.886Z,67.42
2022-12-27T16:39:14.344Z,67.31
2022-12-27T16:41:49.956Z,67.97
2022-12-27T16:44:25.523Z,68.11
2022-12-27T16:47:31.430Z,68.12
2022-12-27T16:50:25.305Z,68.10
2022-12-27T16:53:19.609Z,68.33
2022-12-27T16:56:20.244Z,68.37
2022-12-27T16:58:46.952Z,68.67
2022-12-27T17:01:25.937Z,68.35
2022-12-27T17:03:54.935Z,68.72
2022-12-27T17:06:32.043Z,68.65
2022-12-27T17:09:08.346Z,68.38
2022-12-27T17:11:41.284Z,68.29
2022-12-27T17:14:25.789Z,68.12
2022-12-27T17:16:58.707Z,68.05
2022-12-27T17:19:44.126Z,68.20
2022-12-27T17:22:16.787Z,67.93
2022-12-27T17:24:46.185Z,68.14
2022-12-27T17:27:59.750Z,67.80
2022-12-27T17:31:22.582Z,67.71
2022-12-27T17:34:19.838Z,68.40
2022-12-27T17:37:16.720Z,67.98
2022-12-27T17:39:57.461Z,68.69
2022-12-27T17:43:11.936Z,68.65
2022-12-27T17:46:23.882Z,68.72
2022-12-27T17:48:55.903Z,68.73
2022-12-27T17:51:28.727Z,68.84
2022-12-27T17:54:15.390Z,68.86
2022-12-27T17:57:17.356Z,69.49
2022-12-27T17:59:51.817Z,69.35
2022-12-27T18:02:38.443Z,69.25
2022-12-27T18:05:13.339Z,69.32
2022-12-27T18:07:43.629Z,69.68
2022-12-27T18:10:13.128Z,69.14
2022-12-27T18:12:43.200Z,68.92
2022-12-27T18:15:20.561Z,68.29
2022-12-27T18:17:55.388Z,69.02
2022-12-27T18:20:27.900Z,69.92
2022-12-27T18:23:00.381Z,70.07
2022-12-27T18:25:34.070Z,70.22
2022-12-27T18:28:33.387Z,70.10
2022-12-27T18:31:25.404Z,70.40
2022-12-27T18:34:24.233Z,70.00
2022-12-27T18:37:03.472Z,70.17
2022-12-27T18:39:40.078Z,70.46
2022-12-27T18:42:35.366Z,70.35
2022-12-27T18:45:44.704Z,70.35
2022-12-27T18:48:14.572Z,70.56
2022-12-27T18:50:52.033Z,70.20
2022-12-27T18:53:29.671Z,70.60
2022-12-27T18:56:01.683Z,70.65
2022-12-27T18:58:28.561Z,70.68
2022-12-27T19:01:41.939Z,70.54
2022-12-27T19:04:14.401Z,70.26
2022-12-27T19:06:50.785Z,70.07
2022-12-27T19:09:20.611Z,70.07
2022-12-27T19:12:04.976Z,70.68
2022-12-27T19:14:42.785Z,70.53
2022-12-27T19:17:25.038Z,71.26
2022-12-27T19:19:57.198Z,70.99
2022-12-27T19:22:42.338Z,71.58
2022-12-27T19:25:38.093Z,71.75
2022-12-27T19:28:10.252Z,71.65
2022-12-27T19:30:44.198Z,71.14
2022-12-27T19:33:25.604Z,71.59
2022-12-27T19:35:53.971Z,71.58
2022-12-27T19:38:28.468Z,71.68
2022-12-27T19:41:03.666Z,72.02
2022-12-27T19:43:38.089Z,72.03
2022-12-27T19:46:05.077Z,72.32
2022-12-27T19:48:31.971Z,72.47
2022-12-27T19:50:59.705Z,71.81
2022-12-27T19:53:34.515Z,71.65
2022-12-27T19:56:02.865Z,71.25
2022-12-27T19:58:32.569Z,70.89
2022-12-27T20:00:59.603Z,71.54
2022-12-27T20:03:26.555Z,71.43
2022-12-27T20:06:14.079Z,71.10
2022-12-27T20:08:49.581Z,71.32
2022-12-27T20:11:22.520Z,71.40
2022-12-27T20:13:50.024Z,71.64
2022-12-27T20:16:19.792Z,71.69
2022-12-27T20:18:47.096Z,71.05
2022-12-27T20:21:17.517Z,71.13
2022-12-27T20:23:45.229Z,71.30
2022-12-27T20:26:16.391Z,71.24
2022-12-27T20:28:43.151Z,71.51
2022-12-27T20:31:14.158Z,71.65
2022-12-27T20:33:40.989Z,71.38
2022-12-27T20:36:09.041Z,71.09
2022-12-27T20:38:39.077Z,71.68
2022-12-27T20:41:08.760Z,71.30
2022-12-27T20:43:36.362Z,71.10
2022-12-27T20:46:13.265Z,70.96
2022-12-27T20:48:43.257Z,70.95
2022-12-27T20:51:14.359Z,70.96
2022-12-27T20:53:40.938Z,70.06
2022-12-27T20:56:09.043Z,69.91
2022-12-27T20:58:35.882Z,69.77
2022-12-27T21:01:25.958Z,69.67
2022-12-27T21:03:55.980Z,69.61
2022-12-27T21:06:28.037Z,69.61
2022-12-27T21:08:57.528Z,70.25
2022-12-27T21:11:31.897Z,70.11
2022-12-27T21:14:00.913Z,70.13
2022-12-27T21:16:31.420Z,70.40
2022-12-27T21:19:02.734Z,70.53
2022-12-27T21:21:29.647Z,71.05
2022-12-27T21:23:59.268Z,70.59
2022-12-27T21:26:30.218Z,70.93
2022-12-27T21:29:00.640Z,70.94
2022-12-27T21:31:27.979Z,71.78
2022-12-27T21:33:54.569Z,72.32
2022-12-27T21:36:26.808Z,72.03
2022-12-27T21:38:55.160Z,72.02
2022-12-27T21:41:26.272Z,71.33
2022-12-27T21:43:53.339Z,71.67
2022-12-27T21:46:23.784Z,71.87
2022-12-27T21:48:59.422Z,72.06
2022-12-27T21:51:27.994Z,72.06
2022-12-27T21:53:55.295Z,71.98
2022-12-27T21:56:22.966Z,72.21
2022-12-27T21:58:50.463Z,72.24
2022-12-27T22:01:21.083Z,71.66
2022-12-27T22:03:51.529Z,72.28
2022-12-27T22:06:24.552Z,71.99
2022-12-27T22:08:54.805Z,71.79
2022-12-27T22:11:23.460Z,71.76
2022-12-27T22:13:50.553Z,71.14
2022-12-27T22:16:30.136Z,72.06
2022-12-27T22:18:57.019Z,71.88
2022-12-27T22:21:33.331Z,72.02
2022-12-27T22:24:02.463Z,72.11
2022-12-27T22:26:34.378Z,71.96
2022-12-27T22:29:02.292Z,72.12
2022-12-27T22:31:35.223Z,72.38
2022-12-27T22:34:03.444Z,72.84
2022-12-27T22:36:30.633Z,73.03
2022-12-27T22:38:59.320Z,72.66
2022-12-27T22:41:32.473Z,71.84
2022-12-27T22:44:10.228Z,72.54
2022-12-27T22:47:15.320Z,72.72
2022-12-27T22:49:23.533Z,72.85
2022-12-27T22:51:50.054Z,72.76
2022-12-27T22:54:16.787Z,72.11
2022-12-27T22:56:44.050Z,72.40
2022-12-27T22:59:13.998Z,71.67
2022-12-27T23:01:43.598Z,71.92
2022-12-27T23:04:13.449Z,71.63
2022-12-27T23:06:41.153Z,72.13
2022-12-27T23:09:08.577Z,71.62
2022-12-27T23:11:40.791Z,71.77
2022-12-27T23:14:13.525Z,71.84
2022-12-27T23:16:49.432Z,71.68
2022-12-27T23:19:20.031Z,71.86
2022-12-27T23:21:47.871Z,72.07
2022-12-27T23:24:14.808Z,72.25
2022-12-27T23:26:42.132Z,71.95
2022-12-27T23:29:10.953Z,72.08
2022-12-27T23:31:55.375Z,72.16
2022-12-27T23:34:27.646Z,72.02
2022-12-27T23:36:55.160Z,71.61
2022-12-27T23:39:21.681Z,71.37
2022-12-27T23:41:48.129Z,71.04
2022-12-27T23:44:14.599Z,71.80
2022-12-27T23:46:41.218Z,71.51
2022-12-27T23:49:08.234Z,71.38
2022-12-27T23:51:34.741Z,71.40
2022-12-27T23:54:01.232Z,71.87
2022-12-27T23:56:33.707Z,72.00
2022-12-27T23:59:02.177Z,71.65
